Time;durP1;ratioP1;P1;durP2;ratioP2;P2;SDS_P1;SDS_P2;PMS_P1;PMS_P2;Temp;Humidity;BMP_temperature;BMP_pressure;BME280_temperature;BME280_humidity;BME280_pressure;Samples;Min_cycle;Max_cycle;Signal;HPM_P1;HPM_P2
2022/01/18 00:09:03;;;;;;;0.55;0.00;;;4.70;68.70;;;;;;20891269;28;20036;-45
2022/01/18 00:19:10;;;;;;;0.05;0.00;;;4.60;69.40;;;;;;20888624;28;20033;-46
2022/01/18 00:29:16;;;;;;;0.32;0.10;;;4.50;69.60;;;;;;20888838;28;20072;-45
2022/01/18 00:39:19;;;;;;;1.58;0.05;;;4.40;70.20;;;;;;20887615;28;20059;-47
2022/01/18 00:49:22;;;;;;;0.55;0.10;;;4.40;70.70;;;;;;20886988;28;20087;-46
2022/01/18 00:59:24;;;;;;;0.10;0.00;;;4.30;71.90;;;;;;20887432;28;20082;-48
2022/01/18 01:09:27;;;;;;;0.30;0.00;;;4.30;71.70;;;;;;20885579;28;20063;-45
2022/01/18 01:50:54;;;;;;;0.10;0.10;;;4.00;72.20;;;;;;20883387;28;20052;-45
2022/01/18 02:01:03;;;;;;;0.10;0.00;;;3.80;73.30;;;;;;20884249;28;20090;-45
2022/01/18 02:11:06;;;;;;;0.20;0.00;;;3.80;73.40;;;;;;20882679;28;20032;-47
2022/01/18 02:31:30;;;;;;;0.00;0.00;;;3.90;73.00;;;;;;20886787;28;20080;-47
2022/01/18 02:41:33;;;;;;;0.10;0.00;;;3.80;73.10;;;;;;20907009;28;20287;-48
2022/01/18 02:51:36;;;;;;;0.13;0.00;;;3.70;73.40;;;;;;20913495;28;20032;-45
2022/01/18 03:12:00;;;;;;;0.00;0.00;;;3.60;74.10;;;;;;20911898;28;20036;-46
2022/01/18 03:22:04;;;;;;;0.00;0.00;;;3.40;74.40;;;;;;20910705;28;20037;-45
2022/01/18 03:32:07;;;;;;;0.00;0.00;;;3.30;75.10;;;;;;20909958;28;20452;-46
2022/01/18 03:42:38;;;;;;;0.00;0.00;;;3.20;75.00;;;;;;20909020;28;20419;-47
2022/01/18 03:52:43;;;;;;;0.00;0.00;;;3.30;74.70;;;;;;20906880;28;20543;-48
2022/01/18 04:02:47;;;;;;;0.00;0.00;;;3.40;74.60;;;;;;20907686;28;20068;-45
2022/01/18 04:12:50;;;;;;;0.00;0.00;;;3.30;74.90;;;;;;20907268;28;20464;-45
2022/01/18 04:33:14;;;;;;;0.20;0.10;;;3.10;75.00;;;;;;20888536;28;20049;-48
2022/01/18 04:43:38;;;;;;;0.00;0.00;;;3.20;75.20;;;;;;20871318;28;20037;-46
2022/01/18 04:53:52;;;;;;;0.00;0.00;;;3.20;74.40;;;;;;20886816;28;20093;-45
2022/01/18 05:03:55;;;;;;;0.35;0.00;;;3.10;75.10;;;;;;20885542;28;20033;-48
2022/01/18 05:14:12;;;;;;;0.00;0.00;;;3.00;75.60;;;;;;20885341;28;20033;-45
2022/01/18 05:24:16;;;;;;;0.00;0.00;;;2.80;76.00;;;;;;20884215;28;20037;-46
2022/01/18 05:34:19;;;;;;;0.03;0.00;;;2.80;76.00;;;;;;20884328;28;20087;-46
2022/01/18 05:44:23;;;;;;;1.20;0.00;;;2.60;76.90;;;;;;20883312;28;20064;-46
2022/01/18 05:54:25;;;;;;;0.10;0.00;;;2.40;76.40;;;;;;20884032;28;20028;-45
2022/01/18 06:14:49;;;;;;;0.00;0.00;;;2.40;77.00;;;;;;20889583;28;20099;-46
2022/01/18 06:24:51;;;;;;;0.85;0.00;;;2.10;78.20;;;;;;20899286;28;20389;-48
2022/01/18 06:34:54;;;;;;;0.10;0.00;;;2.10;78.10;;;;;;20898346;28;20480;-47
2022/01/18 06:44:58;;;;;;;0.00;0.00;;;2.00;78.80;;;;;;20898127;28;20037;-45
2022/01/18 06:55:02;;;;;;;0.00;0.00;;;2.10;77.30;;;;;;20897195;28;20583;-47
2022/01/18 07:05:04;;;;;;;0.00;0.00;;;2.30;76.90;;;;;;20896651;28;20045;-46
2022/01/18 07:15:08;;;;;;;0.00;0.00;;;2.10;77.70;;;;;;20895615;28;20060;-46
2022/01/18 07:25:12;;;;;;;0.00;0.00;;;2.20;76.80;;;;;;20894729;28;20107;-46
2022/01/18 07:35:15;;;;;;;0.13;0.00;;;2.20;76.50;;;;;;20894142;28;20040;-45
2022/01/18 07:45:17;;;;;;;0.00;0.00;;;1.90;79.60;;;;;;20893638;28;20078;-44
2022/01/18 07:55:20;;;;;;;0.13;0.00;;;1.70;81.90;;;;;;20892650;28;20075;-46
2022/01/18 08:05:22;;;;;;;0.00;0.00;;;1.70;81.40;;;;;;20891921;28;20041;-45
2022/01/18 08:15:26;;;;;;;0.00;0.00;;;2.60;77.70;;;;;;20890949;28;20036;-45
2022/01/18 08:25:30;;;;;;;1.00;0.00;;;3.50;74.80;;;;;;20907420;28;20045;-46
2022/01/18 08:35:33;;;;;;;0.00;0.00;;;4.00;74.10;;;;;;20890309;28;20094;-44
2022/01/18 08:45:36;;;;;;;0.80;0.00;;;4.30;72.40;;;;;;20888424;28;20481;-45
2022/01/18 08:55:39;;;;;;;0.00;0.00;;;4.80;73.70;;;;;;20887228;28;20484;-46
2022/01/18 09:05:44;;;;;;;0.00;0.00;;;5.50;74.90;;;;;;20886981;28;20390;-46
2022/01/18 09:15:46;;;;;;;0.40;0.10;;;6.40;71.10;;;;;;20886038;28;20094;-45
2022/01/18 09:25:49;;;;;;;0.00;0.00;;;7.00;70.50;;;;;;20885894;28;20562;-45
2022/01/18 09:35:52;;;;;;;0.35;0.00;;;7.40;70.50;;;;;;20885049;28;20135;-47
2022/01/18 09:45:56;;;;;;;0.20;0.10;;;7.80;68.20;;;;;;20884178;28;20444;-50
2022/01/18 09:55:59;;;;;;;0.30;0.10;;;7.90;67.20;;;;;;20901836;28;20041;-45
2022/01/18 10:06:03;;;;;;;0.20;0.08;;;8.10;67.20;;;;;;20883434;28;20032;-45
2022/01/18 10:16:23;;;;;;;0.10;0.10;;;8.20;67.70;;;;;;20883160;28;20063;-46
2022/01/18 10:26:26;;;;;;;1.60;0.20;;;8.20;68.30;;;;;;20882466;28;20057;-47
2022/01/18 10:36:29;;;;;;;0.30;0.20;;;8.50;68.00;;;;;;20881925;28;20037;-47
2022/01/18 10:46:45;;;;;;;0.47;0.30;;;8.40;68.60;;;;;;20881581;28;20036;-49
2022/01/18 10:56:48;;;;;;;1.77;0.40;;;8.60;67.50;;;;;;20881362;28;20389;-46
2022/01/18 11:06:59;;;;;;;1.33;0.60;;;8.80;65.70;;;;;;20896078;28;20063;-44
2022/01/18 11:17:03;;;;;;;1.60;0.70;;;8.90;66.40;;;;;;20895265;28;20045;-47
2022/01/18 11:27:11;;;;;;;2.10;0.82;;;9.00;67.80;;;;;;20894351;28;20103;-47
2022/01/18 11:37:51;;;;;;;3.43;0.80;;;9.10;66.70;;;;;;20895360;28;20110;-45
2022/01/18 11:48:11;;;;;;;1.75;0.82;;;9.30;71.20;;;;;;20894129;28;20044;-48
2022/01/18 11:58:14;;;;;;;1.77;0.90;;;9.40;68.30;;;;;;20892097;28;20033;-46
2022/01/18 12:08:43;;;;;;;2.97;1.30;;;9.50;71.30;;;;;;20892523;28;20429;-47
2022/01/18 12:18:56;;;;;;;2.33;1.38;;;9.20;68.30;;;;;;20882483;28;20069;-45
2022/01/18 12:39:04;;;;;;;5.10;2.47;;;9.30;70.60;;;;;;20889297;28;20106;-46
2022/01/18 12:49:08;;;;;;;4.88;2.20;;;9.40;71.20;;;;;;20888429;28;20082;-46
2022/01/18 12:59:10;;;;;;;4.93;3.10;;;9.10;72.60;;;;;;20887689;28;20084;-45
2022/01/18 13:09:13;;;;;;;8.10;4.53;;;9.00;73.10;;;;;;20886835;28;20377;-48
2022/01/18 13:29:36;;;;;;;;;;;8.30;74.30;;;;;;20885888;28;20053;-45
2022/01/18 13:39:47;;;;;;;12.85;6.50;;;7.60;76.80;;;;;;20885096;28;19939;-48
2022/01/18 13:49:49;;;;;;;13.18;6.88;;;7.00;77.80;;;;;;20884189;28;20045;-47
2022/01/18 13:59:52;;;;;;;12.55;7.35;;;6.60;80.90;;;;;;20883691;28;20090;-48
2022/01/18 14:09:59;;;;;;;15.93;7.93;;;6.20;83.50;;;;;;20883888;28;20029;-49
2022/01/18 14:20:08;;;;;;;13.93;7.03;;;5.90;83.70;;;;;;20883347;28;20040;-47
2022/01/18 14:30:20;;;;;;;18.98;9.55;;;5.50;84.30;;;;;;20882315;28;20049;-45
2022/01/18 14:40:30;;;;;;;15.55;8.27;;;5.20;87.60;;;;;;20895900;28;20041;-47
2022/01/18 14:50:32;;;;;;;17.27;9.30;;;5.00;88.70;;;;;;20897795;28;20091;-45
2022/01/18 15:00:37;;;;;;;19.95;10.55;;;4.70;90.30;;;;;;20897223;28;20350;-47
2022/01/18 15:10:39;;;;;;;23.50;10.20;;;4.30;91.80;;;;;;20896484;28;20036;-46
2022/01/18 15:20:43;;;;;;;22.50;9.90;;;3.90;92.60;;;;;;20895937;28;20507;-47
2022/01/18 15:30:46;;;;;;;22.67;9.55;;;3.40;93.00;;;;;;20894423;28;20118;-45
2022/01/18 15:40:50;;;;;;;21.92;9.57;;;2.80;93.40;;;;;;20893518;28;20033;-46
2022/01/18 15:50:53;;;;;;;20.05;9.57;;;2.10;94.30;;;;;;20893144;28;20049;-45
2022/01/18 16:00:56;;;;;;;17.60;10.02;;;1.60;95.30;;;;;;20893415;28;20040;-44
2022/01/18 16:11:00;;;;;;;18.08;9.02;;;1.10;96.70;;;;;;20891482;28;20033;-45
2022/01/18 16:21:03;;;;;;;22.98;10.52;;;0.70;98.00;;;;;;20890464;28;20037;-46
2022/01/18 16:31:05;;;;;;;22.48;11.55;;;0.30;99.40;;;;;;20890189;28;20057;-46
2022/01/18 16:41:09;;;;;;;25.58;12.10;;;0.00;99.90;;;;;;20888500;28;20058;-48
2022/01/18 16:51:12;;;;;;;24.08;11.88;;;-0.20;99.90;;;;;;20888346;28;20086;-47
2022/01/18 17:01:14;;;;;;;22.90;11.60;;;-0.30;99.90;;;;;;20886946;28;20041;-45
2022/01/18 17:11:18;;;;;;;25.17;11.30;;;-0.50;99.90;;;;;;20886741;28;20036;-45
2022/01/18 17:21:21;;;;;;;23.52;11.10;;;-0.60;99.90;;;;;;20885896;28;20389;-45
2022/01/18 17:31:24;;;;;;;21.00;11.07;;;-0.70;99.90;;;;;;20888134;28;20582;-46
2022/01/18 17:41:31;;;;;;;20.27;10.27;;;-0.90;99.90;;;;;;20902010;28;20025;-45
2022/01/18 17:51:34;;;;;;;19.77;9.35;;;-0.90;99.90;;;;;;20901269;28;20067;-46
2022/01/18 18:01:36;;;;;;;24.58;11.55;;;-0.90;99.90;;;;;;20900857;28;20087;-45
2022/01/18 18:11:39;;;;;;;22.05;10.55;;;-0.90;99.90;;;;;;20908189;28;20033;-46
2022/01/18 18:21:42;;;;;;;22.17;10.57;;;-0.90;99.90;;;;;;20916381;28;20055;-50
2022/01/18 18:31:45;;;;;;;20.92;10.70;;;-0.90;99.90;;;;;;20915612;28;20053;-44
2022/01/18 18:52:06;;;;;;;16.70;7.28;;;-1.20;99.90;;;;;;20914606;28;20048;-46
2022/01/18 19:12:12;;;;;;;15.70;6.88;;;-1.30;99.90;;;;;;20912484;28;20041;-45
2022/01/18 19:22:15;;;;;;;16.65;7.55;;;-1.30;99.90;;;;;;20911696;28;20476;-46
2022/01/18 19:32:17;;;;;;;13.20;5.85;;;-1.20;99.90;;;;;;20911094;28;20068;-47
2022/01/18 19:42:35;;;;;;;13.70;6.15;;;-1.20;99.90;;;;;;20910188;28;20037;-45
2022/01/18 19:52:38;;;;;;;12.25;6.47;;;-1.30;99.90;;;;;;20909501;28;20431;-44
2022/01/18 20:02:42;;;;;;;14.32;5.10;;;-1.30;99.90;;;;;;20908841;28;20041;-46
2022/01/18 20:12:45;;;;;;;7.63;3.33;;;-1.20;99.90;;;;;;20908131;28;20052;-44
2022/01/18 20:22:49;;;;;;;6.55;2.92;;;-1.40;99.90;;;;;;20907839;28;20063;-46
2022/01/18 20:32:54;;;;;;;8.45;2.80;;;-1.30;99.90;;;;;;20905382;28;20049;-49
2022/01/18 20:53:21;;;;;;;4.18;1.52;;;-1.20;99.90;;;;;;20904748;28;20045;-45
2022/01/18 21:03:23;;;;;;;6.80;3.00;;;-1.60;99.90;;;;;;20904043;28;20109;-45
2022/01/18 21:13:28;;;;;;;7.93;3.90;;;-1.60;99.90;;;;;;20919852;28;20033;-47
2022/01/18 21:23:31;;;;;;;7.18;2.97;;;-1.50;99.90;;;;;;20902466;28;20094;-44
2022/01/18 21:33:34;;;;;;;6.35;2.03;;;-1.60;99.90;;;;;;20885360;28;20041;-48
2022/01/18 21:43:38;;;;;;;7.00;2.80;;;-1.60;99.90;;;;;;20884753;28;20045;-45
2022/01/18 21:53:42;;;;;;;8.13;3.58;;;-1.50;99.90;;;;;;20901169;28;20497;-46
2022/01/18 22:03:45;;;;;;;8.02;4.03;;;-1.60;99.90;;;;;;20884709;28;20106;-48
2022/01/18 22:13:49;;;;;;;9.05;3.97;;;-1.60;99.90;;;;;;20883425;28;20488;-48
2022/01/18 22:23:52;;;;;;;9.45;4.60;;;-1.70;99.90;;;;;;20883359;28;20045;-47
2022/01/18 22:33:55;;;;;;;8.02;3.47;;;-1.80;99.90;;;;;;20882747;28;20033;-45
2022/01/18 22:43:58;;;;;;;10.07;4.05;;;-1.80;99.90;;;;;;20882547;28;20079;-45
2022/01/18 22:54:05;;;;;;;7.97;2.67;;;-1.90;99.90;;;;;;20851548;28;20820;-46
2022/01/18 23:04:07;;;;;;;6.90;3.10;;;-1.80;99.90;;;;;;20896803;28;20103;-45
2022/01/18 23:14:10;;;;;;;8.75;3.88;;;-1.90;99.90;;;;;;20895958;28;20370;-47
2022/01/18 23:24:13;;;;;;;10.25;4.35;;;-2.00;99.90;;;;;;20894927;28;20099;-45
2022/01/18 23:34:17;;;;;;;7.65;3.83;;;-2.00;99.90;;;;;;20894591;28;20063;-44
2022/01/18 23:44:21;;;;;;;10.13;4.25;;;-2.10;99.90;;;;;;20893942;28;20037;-47
2022/01/18 23:54:24;;;;;;;7.70;3.90;;;-2.10;99.90;;;;;;20893935;28;20033;-46
